Time;durP1;ratioP1;P1;durP2;ratioP2;P2;SDS_P1;SDS_P2;PMS_P1;PMS_P2;Temp;Humidity;BMP_temperature;BMP_pressure;BME280_temperature;BME280_humidity;BME280_pressure;Samples;Min_cycle;Max_cycle;Signal;HPM_P1;HPM_P2
2022/10/07 00:02:15;;;;;;;51.15;41.33;;;21.90;58.30;;;;;;4799502;54;21032;-33
2022/10/07 00:07:16;;;;;;;49.30;39.50;;;21.80;58.40;;;;;;4817527;54;20993;-32
2022/10/07 00:12:17;;;;;;;46.75;39.38;;;21.80;58.20;;;;;;4794632;58;21079;-31
2022/10/07 00:17:18;;;;;;;49.20;40.88;;;21.90;58.30;;;;;;4800128;54;21477;-32
2022/10/07 00:22:19;;;;;;;47.62;39.08;;;21.80;58.30;;;;;;4957379;54;21007;-32
2022/10/07 00:27:20;;;;;;;47.65;39.17;;;21.80;58.20;;;;;;4862053;54;21035;-29
2022/10/07 00:32:21;;;;;;;46.37;39.05;;;21.90;58.20;;;;;;4800743;54;21023;-25
2022/10/07 00:37:21;;;;;;;48.35;39.78;;;21.80;58.10;;;;;;4811372;54;21593;-33
2022/10/07 00:42:22;;;;;;;44.97;37.67;;;21.80;58.20;;;;;;4795160;58;21079;-30
2022/10/07 00:47:33;;;;;;;44.05;37.40;;;21.80;58.10;;;;;;4820562;54;20999;-34
2022/10/07 00:52:40;;;;;;;47.67;39.33;;;21.80;58.10;;;;;;4798092;54;21087;-31
2022/10/07 00:57:43;;;;;;;47.17;38.08;;;21.80;58.10;;;;;;4826119;54;21043;-30
2022/10/07 01:02:45;;;;;;;45.72;37.13;;;21.80;58.10;;;;;;4813623;54;21003;-28
2022/10/07 01:07:48;;;;;;;48.10;38.35;;;21.80;58.10;;;;;;4815334;54;21556;-34
2022/10/07 01:13:30;;;;;;;44.67;37.30;;;21.80;58.10;;;;;;4810414;54;21027;-29
2022/10/07 01:18:51;;;;;;;46.05;37.38;;;21.80;58.10;;;;;;4812882;54;21497;-31
2022/10/07 01:32:11;;;;;;;42.83;35.53;;;21.80;58.00;;;;;;4815527;54;21493;-27
2022/10/07 01:37:15;;;;;;;43.58;35.92;;;21.80;58.10;;;;;;4804131;54;21072;-35
2022/10/07 01:42:18;;;;;;;41.95;35.05;;;21.80;58.00;;;;;;4794678;58;21022;-32
2022/10/07 01:47:19;;;;;;;41.40;34.25;;;21.80;58.10;;;;;;4833592;54;21119;-32
2022/10/07 01:52:45;;;;;;;41.83;34.47;;;21.80;58.00;;;;;;4794076;58;21139;-32
2022/10/07 01:58:09;;;;;;;40.35;33.17;;;21.80;58.00;;;;;;4846416;54;21031;-26
2022/10/07 02:04:21;;;;;;;39.67;32.97;;;21.80;58.00;;;;;;4808630;54;21517;-32
2022/10/07 02:11:11;;;;;;;39.40;32.90;;;21.80;58.00;;;;;;4821367;54;21019;-34
2022/10/07 02:16:35;;;;;;;38.92;32.70;;;21.80;58.00;;;;;;4800016;54;21454;-28
2022/10/07 02:21:37;;;;;;;39.17;32.35;;;21.80;58.00;;;;;;4810034;54;21171;-27
2022/10/07 02:26:39;;;;;;;38.25;31.65;;;21.80;58.00;;;;;;4796165;58;21641;-29
2022/10/07 02:31:43;;;;;;;36.13;30.12;;;21.80;57.90;;;;;;4859848;54;21031;-33
2022/10/07 02:36:52;;;;;;;38.50;31.75;;;21.80;57.90;;;;;;4804595;54;21331;-30
2022/10/07 02:42:20;;;;;;;37.60;31.77;;;21.80;57.90;;;;;;4798722;54;21035;-27
2022/10/07 02:47:32;;;;;;;38.30;30.85;;;21.80;58.00;;;;;;4796068;58;21529;-36
2022/10/07 02:52:34;;;;;;;38.08;30.98;;;21.80;57.90;;;;;;4795549;54;21103;-29
2022/10/07 02:57:45;;;;;;;35.83;30.67;;;21.80;57.90;;;;;;4833912;54;21003;-27
2022/10/07 03:02:55;;;;;;;39.42;30.60;;;21.80;57.90;;;;;;4817062;54;21031;-28
2022/10/07 03:08:03;;;;;;;35.42;29.98;;;21.80;57.90;;;;;;4803281;54;21035;-29
2022/10/07 03:13:04;;;;;;;32.63;28.42;;;21.80;57.90;;;;;;4807803;54;21335;-29
2022/10/07 03:18:06;;;;;;;34.47;28.98;;;21.80;57.90;;;;;;4796040;58;21490;-34
2022/10/07 03:23:10;;;;;;;32.72;27.55;;;21.80;57.90;;;;;;4807498;54;20988;-28
2022/10/07 03:28:12;;;;;;;35.83;28.48;;;21.80;58.00;;;;;;4838504;54;21538;-32
2022/10/07 03:33:15;;;;;;;33.75;27.87;;;21.80;58.00;;;;;;4808662;54;21075;-28
2022/10/07 03:38:15;;;;;;;32.58;27.33;;;21.80;57.90;;;;;;4834206;54;21526;-28
2022/10/07 03:43:17;;;;;;;36.08;29.87;;;21.80;58.00;;;;;;4794569;58;21036;-31
2022/10/07 03:48:18;;;;;;;32.75;28.50;;;21.80;58.00;;;;;;4795374;58;20992;-28
2022/10/07 03:53:19;;;;;;;32.17;27.30;;;21.80;58.00;;;;;;4794957;58;21012;-32
2022/10/07 03:58:20;;;;;;;35.10;28.35;;;21.80;57.90;;;;;;4835259;54;21083;-34
2022/10/07 04:03:21;;;;;;;32.17;27.02;;;21.80;57.90;;;;;;4801040;54;21568;-28
2022/10/07 04:08:22;;;;;;;31.42;26.83;;;21.80;57.90;;;;;;4824493;54;21569;-35
2022/10/07 04:13:23;;;;;;;31.20;26.37;;;21.80;58.00;;;;;;4824713;54;21015;-30
2022/10/07 04:18:24;;;;;;;30.70;26.05;;;21.80;58.00;;;;;;4808317;54;21075;-27
2022/10/07 04:23:26;;;;;;;31.10;26.00;;;21.80;58.00;;;;;;4809524;54;21510;-29
2022/10/07 04:28:27;;;;;;;31.75;26.08;;;21.80;58.00;;;;;;4804051;54;21071;-29
2022/10/07 04:33:28;;;;;;;29.98;26.20;;;21.80;58.00;;;;;;4806299;54;21509;-27
2022/10/07 04:38:31;;;;;;;29.95;25.00;;;21.80;58.00;;;;;;4831074;54;21497;-28
2022/10/07 04:43:32;;;;;;;28.98;24.48;;;21.80;58.00;;;;;;4825211;54;21660;-34
2022/10/07 04:48:34;;;;;;;28.25;25.23;;;21.80;58.00;;;;;;4822961;54;21046;-28
2022/10/07 04:53:36;;;;;;;30.80;26.30;;;21.80;58.60;;;;;;4816759;54;21016;-31
2022/10/07 04:58:37;;;;;;;31.02;25.58;;;21.70;57.90;;;;;;4801757;54;21064;-28
2022/10/07 05:03:38;;;;;;;32.13;25.37;;;21.80;58.00;;;;;;4837472;54;21513;-33
2022/10/07 05:08:42;;;;;;;28.62;24.77;;;21.80;58.00;;;;;;4878202;54;21556;-31
2022/10/07 05:13:43;;;;;;;29.48;24.33;;;21.80;58.00;;;;;;4849638;54;21529;-27
2022/10/07 05:18:43;;;;;;;29.10;24.77;;;21.70;57.90;;;;;;4795205;54;21039;-31
2022/10/07 05:23:44;;;;;;;29.92;24.37;;;21.70;57.90;;;;;;4806848;54;21537;-28
2022/10/07 05:28:48;;;;;;;29.95;24.70;;;21.70;57.80;;;;;;4821993;54;21035;-28
2022/10/07 05:33:49;;;;;;;27.13;22.73;;;21.70;57.80;;;;;;4812721;54;20996;-28
2022/10/07 05:38:52;;;;;;;27.92;24.35;;;21.70;57.80;;;;;;4795198;58;21091;-31
2022/10/07 05:43:53;;;;;;;30.08;24.58;;;21.80;57.80;;;;;;4845627;54;21081;-28
2022/10/07 05:48:54;;;;;;;28.52;24.45;;;21.80;57.70;;;;;;4818533;54;21156;-25
2022/10/07 05:53:56;;;;;;;29.17;24.42;;;21.70;57.70;;;;;;4818605;54;21489;-31
2022/10/07 05:58:57;;;;;;;31.87;25.25;;;21.80;57.70;;;;;;4818159;54;21000;-32
2022/10/07 06:03:58;;;;;;;29.83;24.27;;;21.70;57.60;;;;;;4809559;54;21016;-33
2022/10/07 06:13:06;;;;;;;30.48;24.85;;;21.70;57.50;;;;;;4834675;54;21004;-31
2022/10/07 06:18:07;;;;;;;28.20;24.20;;;21.70;57.50;;;;;;4802843;54;21035;-35
2022/10/07 06:23:07;;;;;;;30.67;24.85;;;21.70;57.40;;;;;;4803684;54;21490;-30
2022/10/07 06:28:09;;;;;;;30.55;24.65;;;21.70;57.40;;;;;;4795975;58;21474;-31
2022/10/07 06:33:10;;;;;;;28.40;24.08;;;21.70;57.30;;;;;;4801487;54;21792;-33
2022/10/07 06:38:13;;;;;;;27.90;23.45;;;21.70;57.30;;;;;;4803418;54;20992;-30
2022/10/07 06:43:14;;;;;;;28.33;24.52;;;21.70;57.30;;;;;;4793831;58;21578;-26
2022/10/07 06:48:15;;;;;;;43.72;29.70;;;21.70;57.30;;;;;;4794004;58;21573;-29
2022/10/07 06:53:16;;;;;;;68.10;40.95;;;21.70;54.60;;;;;;4799293;54;21151;-28
2022/10/07 06:58:17;;;;;;;65.70;42.85;;;21.80;53.60;;;;;;4795343;58;21000;-28
2022/10/07 07:03:19;;;;;;;70.40;41.40;;;21.80;53.20;;;;;;4826386;54;21039;-33
2022/10/07 07:08:21;;;;;;;68.70;40.75;;;21.80;53.50;;;;;;4796276;55;21080;-29
2022/10/07 07:13:23;;;;;;;62.15;41.97;;;21.80;53.70;;;;;;4800603;54;21032;-34
2022/10/07 07:18:25;;;;;;;60.97;42.28;;;21.80;53.20;;;;;;4839069;54;21805;-29
2022/10/07 07:23:27;;;;;;;64.28;43.80;;;21.90;53.20;;;;;;4832786;54;21067;-34
2022/10/07 07:28:29;;;;;;;65.70;47.10;;;21.90;53.30;;;;;;4861142;54;21080;-33
2022/10/07 07:33:30;;;;;;;66.28;48.00;;;21.90;53.20;;;;;;4820419;54;21522;-27
2022/10/07 07:38:31;;;;;;;60.83;43.53;;;21.90;53.30;;;;;;4817974;54;21143;-29
2022/10/07 07:43:32;;;;;;;64.65;43.58;;;21.90;53.50;;;;;;4817458;54;21039;-27
2022/10/07 07:48:32;;;;;;;64.70;46.70;;;22.00;53.40;;;;;;4795527;58;20988;-28
2022/10/07 07:53:35;;;;;;;77.32;50.67;;;21.90;53.50;;;;;;4827109;54;20996;-30
2022/10/07 07:58:37;;;;;;;88.90;54.67;;;22.00;53.60;;;;;;4843231;54;21008;-31
2022/10/07 08:03:41;;;;;;;93.07;54.30;;;22.00;53.90;;;;;;4806324;54;21071;-31
2022/10/07 08:08:42;;;;;;;91.12;54.33;;;22.00;54.10;;;;;;4830213;54;21609;-32
2022/10/07 08:13:44;;;;;;;92.53;56.10;;;22.00;54.20;;;;;;4794404;55;21060;-32
2022/10/07 08:18:47;;;;;;;83.35;50.83;;;22.10;54.50;;;;;;4810826;54;21004;-35
2022/10/07 08:23:58;;;;;;;76.47;48.55;;;22.10;54.60;;;;;;4813301;54;21040;-30
2022/10/07 08:29:00;;;;;;;70.72;49.38;;;22.00;54.60;;;;;;4814231;54;20992;-28
2022/10/07 08:34:02;;;;;;;77.20;48.78;;;22.10;54.70;;;;;;4815754;54;21522;-28
2022/10/07 08:39:04;;;;;;;73.80;48.60;;;22.10;55.10;;;;;;4841322;54;21537;-31
2022/10/07 08:44:39;;;;;;;78.00;51.17;;;22.10;55.30;;;;;;4812941;54;21024;-30
2022/10/07 08:49:57;;;;;;;76.15;50.47;;;22.10;55.20;;;;;;4794735;54;21534;-28
2022/10/07 08:54:59;;;;;;;;;;;22.10;55.80;;;;;;4800456;54;21059;-28
2022/10/07 09:00:04;;;;;;;71.05;48.30;;;22.10;55.20;;;;;;4797947;54;20293;-29
2022/10/07 09:05:33;;;;;;;71.93;48.95;;;22.10;55.20;;;;;;4821911;54;21019;-28
2022/10/07 09:10:39;;;;;;;76.05;48.58;;;22.10;55.20;;;;;;4806931;54;21520;-29
2022/10/07 09:16:00;;;;;;;75.57;50.60;;;22.20;55.30;;;;;;4798707;54;21018;-28
2022/10/07 09:21:04;;;;;;;65.40;47.53;;;22.20;55.40;;;;;;4802954;54;21111;-30
2022/10/07 09:26:12;;;;;;;69.28;46.25;;;22.20;55.50;;;;;;4816395;54;21000;-30
2022/10/07 09:31:15;;;;;;;60.85;46.67;;;22.30;55.60;;;;;;4803782;54;21028;-27
2022/10/07 09:36:17;;;;;;;69.65;46.67;;;22.30;55.80;;;;;;4811330;54;21465;-28
2022/10/07 09:41:40;;;;;;;66.03;45.38;;;22.30;55.90;;;;;;4795281;54;21020;-30
2022/10/07 09:46:51;;;;;;;61.35;44.28;;;22.30;56.00;;;;;;4832692;54;21031;-25
2022/10/07 09:52:37;;;;;;;65.03;46.75;;;22.40;56.40;;;;;;4795436;54;21565;-28
2022/10/07 09:57:41;;;;;;;61.40;45.60;;;22.40;56.40;;;;;;4824984;54;21059;-29
2022/10/07 10:04:16;;;;;;;59.63;44.47;;;22.40;56.50;;;;;;4817372;54;21578;-29
2022/10/07 10:09:22;;;;;;;59.90;43.78;;;22.40;56.70;;;;;;4794803;58;20988;-28
2022/10/07 10:17:15;;;;;;;59.47;42.25;;;22.40;56.80;;;;;;4862859;54;21502;-34
2022/10/07 10:22:29;;;;;;;56.05;42.25;;;22.40;56.90;;;;;;4806741;54;21016;-32
2022/10/07 10:27:38;;;;;;;61.83;41.25;;;22.40;57.00;;;;;;4802356;54;21028;-28
2022/10/07 10:36:02;;;;;;;64.82;41.45;;;22.50;57.50;;;;;;4817163;54;21012;-32
2022/10/07 10:41:37;;;;;;;51.80;40.33;;;22.50;57.90;;;;;;4805830;54;21592;-30
2022/10/07 10:50:37;;;;;;;54.47;40.97;;;22.60;58.20;;;;;;4799004;54;21065;-34
2022/10/07 10:56:42;;;;;;;47.78;38.20;;;22.60;58.50;;;;;;4848976;54;21517;-30
2022/10/07 11:01:49;;;;;;;52.45;39.30;;;22.70;58.80;;;;;;4805005;54;21142;-33
2022/10/07 11:07:03;;;;;;;52.20;39.83;;;22.70;58.80;;;;;;4815018;54;21036;-31
2022/10/07 11:12:10;;;;;;;52.47;38.47;;;22.70;58.90;;;;;;4794511;54;21154;-31
2022/10/07 11:17:14;;;;;;;49.97;39.03;;;22.70;59.10;;;;;;4810662;54;20988;-33
2022/10/07 11:22:20;;;;;;;49.92;37.65;;;22.70;59.20;;;;;;4808504;54;21663;-31
2022/10/07 11:27:32;;;;;;;51.78;38.45;;;22.70;59.30;;;;;;4794345;58;21076;-33
2022/10/07 11:33:26;;;;;;;48.83;38.67;;;22.70;59.40;;;;;;4795273;54;21099;-32
2022/10/07 11:38:33;;;;;;;45.45;36.75;;;22.70;59.30;;;;;;4803409;54;21052;-34
2022/10/07 11:43:45;;;;;;;49.45;37.85;;;22.70;59.90;;;;;;4875020;54;20984;-28
2022/10/07 11:48:56;;;;;;;50.60;37.38;;;22.70;59.20;;;;;;4801999;54;21502;-31
2022/10/07 11:54:01;;;;;;;49.92;38.55;;;22.60;59.10;;;;;;4800171;54;21044;-27
2022/10/07 11:59:06;;;;;;;50.03;38.85;;;22.60;59.10;;;;;;4805283;54;20987;-33
2022/10/07 12:07:56;;;;;;;55.05;40.08;;;22.60;59.00;;;;;;4795113;58;21067;-28
2022/10/07 12:14:51;;;;;;;49.28;38.42;;;22.60;59.10;;;;;;4809923;54;21410;-29
2022/10/07 12:20:29;;;;;;;47.17;38.22;;;22.60;59.20;;;;;;4824189;54;21561;-28
2022/10/07 12:25:31;;;;;;;48.83;38.70;;;22.60;59.30;;;;;;4802040;54;21498;-29
2022/10/07 12:30:47;;;;;;;48.85;38.80;;;22.60;59.40;;;;;;4843878;54;21485;-33
2022/10/07 12:35:49;;;;;;;48.45;37.20;;;22.60;59.50;;;;;;4807119;54;21533;-33
2022/10/07 12:41:18;;;;;;;51.45;38.30;;;22.60;59.50;;;;;;4798358;54;21565;-33
2022/10/07 12:46:22;;;;;;;46.22;35.60;;;22.70;59.80;;;;;;4807504;54;21012;-34
2022/10/07 12:51:37;;;;;;;47.88;35.88;;;22.70;60.00;;;;;;4794954;58;21023;-32
2022/10/07 12:56:42;;;;;;;40.42;32.97;;;22.70;60.10;;;;;;4829821;54;21518;-30
2022/10/07 13:06:02;;;;;;;45.47;34.78;;;22.70;60.10;;;;;;4805298;54;21000;-37
2022/10/07 13:13:59;;;;;;;44.03;35.08;;;22.70;60.20;;;;;;4799156;54;21067;-33
2022/10/07 13:20:52;;;;;;;47.55;34.92;;;22.70;60.40;;;;;;4810030;54;21222;-29
2022/10/07 13:25:56;;;;;;;48.05;37.38;;;22.70;60.40;;;;;;4809920;54;21067;-26
2022/10/07 13:31:12;;;;;;;42.15;33.53;;;22.60;60.40;;;;;;4795641;58;20995;-31
2022/10/07 13:36:42;;;;;;;45.72;34.25;;;22.60;60.50;;;;;;4800962;54;21530;-27
2022/10/07 13:41:45;;;;;;;41.47;32.70;;;22.50;60.40;;;;;;4811255;54;21056;-36
2022/10/07 13:48:41;;;;;;;41.33;33.30;;;22.50;60.40;;;;;;4804839;54;21067;-28
2022/10/07 13:53:42;;;;;;;43.65;34.53;;;22.50;60.40;;;;;;4854234;54;21068;-36
2022/10/07 13:58:43;;;;;;;44.78;34.55;;;22.50;60.50;;;;;;4803726;54;21127;-31
2022/10/07 14:05:42;;;;;;;40.60;32.10;;;22.40;60.40;;;;;;4800354;54;21028;-28
2022/10/07 14:11:13;;;;;;;44.05;33.08;;;22.40;60.50;;;;;;4800463;54;21048;-27
2022/10/07 14:16:20;;;;;;;42.90;33.20;;;22.40;60.50;;;;;;4800772;54;21062;-33
2022/10/07 14:21:21;;;;;;;43.75;34.17;;;22.40;60.50;;;;;;4795874;58;21494;-28
2022/10/07 14:26:42;;;;;;;40.95;33.80;;;22.40;60.50;;;;;;4809510;54;21004;-31
2022/10/07 14:37:10;;;;;;;43.30;33.78;;;22.30;60.80;;;;;;4795409;54;21067;-31
2022/10/07 14:42:22;;;;;;;39.60;32.80;;;22.30;60.50;;;;;;4814165;54;21027;-31
2022/10/07 14:47:26;;;;;;;38.38;32.83;;;22.30;60.40;;;;;;4820994;54;21015;-30
2022/10/07 14:52:50;;;;;;;37.70;30.60;;;22.30;60.50;;;;;;4794935;58;21501;-28
2022/10/07 14:57:51;;;;;;;38.05;32.78;;;22.30;60.40;;;;;;4808546;54;21561;-31
2022/10/07 15:02:55;;;;;;;41.53;32.10;;;22.30;60.40;;;;;;4806588;54;21572;-35
2022/10/07 15:07:56;;;;;;;39.67;31.65;;;22.30;60.40;;;;;;4802145;54;21473;-33
2022/10/07 15:12:58;;;;;;;41.25;34.28;;;22.30;60.30;;;;;;4829205;54;21012;-30
2022/10/07 15:17:59;;;;;;;43.00;32.75;;;22.30;60.40;;;;;;4816401;54;21549;-29
2022/10/07 15:23:01;;;;;;;40.70;32.33;;;22.30;60.40;;;;;;4833078;54;21007;-30
2022/10/07 15:28:02;;;;;;;39.38;31.12;;;22.30;60.30;;;;;;4796063;58;21525;-33
2022/10/07 15:33:03;;;;;;;37.35;32.60;;;22.30;60.40;;;;;;4794584;54;21064;-35
2022/10/07 15:38:03;;;;;;;39.72;33.00;;;22.30;60.30;;;;;;4800436;54;21000;-31
2022/10/07 15:43:04;;;;;;;38.35;31.67;;;22.30;60.30;;;;;;4801260;54;21075;-32
2022/10/07 15:48:06;;;;;;;37.92;32.08;;;22.30;60.20;;;;;;4798297;54;20983;-30
2022/10/07 15:53:06;;;;;;;37.38;31.83;;;22.20;60.90;;;;;;4801679;54;21566;-34
2022/10/07 15:58:07;;;;;;;37.53;32.70;;;22.20;60.20;;;;;;4806003;54;21046;-34
2022/10/07 16:03:08;;;;;;;39.88;32.35;;;22.20;60.20;;;;;;4798582;54;21051;-36
2022/10/07 16:08:09;;;;;;;39.03;32.38;;;22.20;60.20;;;;;;4831566;54;20996;-28
2022/10/07 16:13:10;;;;;;;39.00;32.72;;;22.20;60.10;;;;;;4801696;54;21454;-31
2022/10/07 16:18:10;;;;;;;39.55;32.60;;;22.20;60.10;;;;;;4797373;54;21005;-28
2022/10/07 16:23:11;;;;;;;38.80;31.77;;;22.20;60.10;;;;;;4797588;54;21107;-34
2022/10/07 16:33:31;;;;;;;38.85;31.70;;;22.20;60.20;;;;;;4794665;54;21122;-28
2022/10/07 16:38:32;;;;;;;41.17;33.33;;;22.20;60.10;;;;;;4813337;54;21537;-31
2022/10/07 16:43:34;;;;;;;39.30;31.10;;;22.20;60.10;;;;;;4797483;54;21144;-31
2022/10/07 16:48:40;;;;;;;40.47;33.42;;;22.20;60.10;;;;;;4851987;54;21393;-35
2022/10/07 16:53:46;;;;;;;38.55;33.10;;;22.30;60.10;;;;;;4794117;58;21084;-30
2022/10/07 16:58:53;;;;;;;38.63;33.55;;;22.20;60.00;;;;;;4850368;54;21016;-31
2022/10/07 17:03:56;;;;;;;42.05;33.08;;;22.20;60.00;;;;;;4795335;55;21035;-30
2022/10/07 17:09:03;;;;;;;38.70;32.28;;;22.20;60.10;;;;;;4851374;54;21000;-29
2022/10/07 17:14:16;;;;;;;40.58;33.08;;;22.20;60.10;;;;;;4812924;54;21622;-28
2022/10/07 17:19:19;;;;;;;39.50;33.50;;;22.20;60.00;;;;;;4812582;54;21000;-32
2022/10/07 17:24:22;;;;;;;39.65;33.10;;;22.20;60.10;;;;;;4801526;54;21020;-27
2022/10/07 17:29:24;;;;;;;42.40;35.08;;;22.20;60.10;;;;;;4815944;54;21067;-28
2022/10/07 17:34:25;;;;;;;40.63;33.40;;;22.20;60.00;;;;;;4829994;54;21193;-29
2022/10/07 17:39:26;;;;;;;39.85;33.25;;;22.20;60.10;;;;;;4811677;54;21421;-34
2022/10/07 17:44:28;;;;;;;39.95;33.10;;;22.20;60.20;;;;;;4795213;58;21034;-29
2022/10/07 17:49:32;;;;;;;42.17;35.25;;;22.20;60.10;;;;;;4810695;54;21588;-31
2022/10/07 17:54:33;;;;;;;39.42;34.58;;;22.20;60.10;;;;;;4820422;54;21565;-35
2022/10/07 17:59:34;;;;;;;39.40;33.30;;;22.20;60.20;;;;;;4798165;54;21039;-29
2022/10/07 18:04:35;;;;;;;40.17;34.38;;;22.20;60.10;;;;;;4799458;54;21032;-29
2022/10/07 18:09:36;;;;;;;41.20;34.50;;;22.20;60.10;;;;;;4808576;54;21565;-30
2022/10/07 18:19:57;;;;;;;41.45;35.00;;;22.20;60.10;;;;;;4795155;54;21103;-31
2022/10/07 18:24:58;;;;;;;41.83;34.55;;;22.20;60.10;;;;;;4824048;54;21533;-32
2022/10/07 18:30:00;;;;;;;42.38;35.53;;;22.20;60.60;;;;;;4811235;54;21048;-30
2022/10/07 18:35:01;;;;;;;40.95;35.60;;;22.20;60.10;;;;;;4800418;54;21603;-30
2022/10/07 18:40:01;;;;;;;43.40;35.75;;;22.10;60.40;;;;;;4819000;54;21083;-34
2022/10/07 18:45:03;;;;;;;43.20;35.95;;;22.10;60.10;;;;;;4855455;54;20995;-27
2022/10/07 18:50:05;;;;;;;41.55;34.92;;;22.20;60.10;;;;;;4854504;54;21047;-35
2022/10/07 18:55:06;;;;;;;42.38;34.10;;;22.10;60.00;;;;;;4833944;54;21111;-34
2022/10/07 19:00:08;;;;;;;42.58;34.80;;;22.10;60.00;;;;;;4799569;54;21043;-30
2022/10/07 19:05:09;;;;;;;45.45;35.75;;;22.10;60.00;;;;;;4803910;54;21044;-26
2022/10/07 19:10:10;;;;;;;41.10;34.70;;;22.10;60.00;;;;;;4818567;54;21012;-37
2022/10/07 19:15:10;;;;;;;43.45;36.50;;;22.10;60.00;;;;;;4807870;54;21044;-32
2022/10/07 19:20:11;;;;;;;44.30;36.35;;;22.10;60.00;;;;;;4802475;54;21012;-35
2022/10/07 19:30:31;;;;;;;39.72;34.28;;;22.10;60.40;;;;;;4819592;54;21154;-35
2022/10/07 19:35:33;;;;;;;44.58;36.67;;;22.10;60.00;;;;;;4795382;55;21063;-35
2022/10/07 19:40:38;;;;;;;45.70;36.65;;;22.10;60.00;;;;;;4823002;54;21537;-35
2022/10/07 19:45:41;;;;;;;42.10;35.00;;;22.10;59.90;;;;;;4804093;54;21490;-30
2022/10/07 19:50:44;;;;;;;43.92;36.38;;;22.10;59.90;;;;;;4825861;54;20992;-34
2022/10/07 19:55:45;;;;;;;43.42;36.22;;;22.10;59.90;;;;;;4848984;54;21012;-33
2022/10/07 20:00:46;;;;;;;42.60;35.58;;;22.10;59.90;;;;;;4840346;54;21083;-34
2022/10/07 20:05:47;;;;;;;44.30;36.17;;;22.10;59.90;;;;;;4799580;54;21035;-27
2022/10/07 20:10:48;;;;;;;42.90;35.90;;;22.10;59.80;;;;;;4813157;54;21040;-32
2022/10/07 20:15:48;;;;;;;45.72;36.60;;;22.10;59.80;;;;;;4809806;54;21663;-32
2022/10/07 20:20:49;;;;;;;40.28;35.33;;;22.10;59.80;;;;;;4795320;58;21091;-29
2022/10/07 20:25:50;;;;;;;41.88;35.58;;;22.10;59.80;;;;;;4819262;54;21098;-32
2022/10/07 20:30:51;;;;;;;43.60;35.33;;;22.10;59.80;;;;;;4830616;54;21056;-29
2022/10/07 20:35:52;;;;;;;44.13;36.47;;;22.10;59.70;;;;;;4802739;54;21101;-29
2022/10/07 20:46:12;;;;;;;45.53;36.88;;;22.10;59.70;;;;;;4795356;54;21087;-34
2022/10/07 20:51:12;;;;;;;45.38;36.03;;;22.10;59.60;;;;;;4881516;54;21032;-30
2022/10/07 20:56:15;;;;;;;44.20;37.28;;;22.10;59.50;;;;;;4842166;54;21051;-29
2022/10/07 21:01:16;;;;;;;41.97;35.78;;;22.10;59.50;;;;;;4841569;54;21486;-35
2022/10/07 21:06:17;;;;;;;41.05;34.33;;;22.10;59.60;;;;;;4823278;54;21016;-28
2022/10/07 21:11:18;;;;;;;40.65;34.50;;;22.10;59.50;;;;;;4814063;54;21633;-31
2022/10/07 21:16:19;;;;;;;42.50;35.60;;;22.10;59.50;;;;;;4805881;54;21031;-34
2022/10/07 21:21:21;;;;;;;42.95;36.05;;;22.10;59.40;;;;;;4796375;54;21454;-36
2022/10/07 21:26:22;;;;;;;44.13;35.35;;;22.10;59.40;;;;;;4840845;54;20996;-38
2022/10/07 21:31:24;;;;;;;44.85;36.75;;;22.10;59.30;;;;;;4810147;54;21509;-32
2022/10/07 21:36:25;;;;;;;42.62;35.15;;;22.10;59.30;;;;;;4826333;54;21490;-31
2022/10/07 21:41:33;;;;;;;43.80;35.67;;;22.10;59.40;;;;;;4803237;54;21039;-35
2022/10/07 21:46:35;;;;;;;42.40;34.78;;;22.10;59.30;;;;;;4795834;58;21027;-26
2022/10/07 21:51:36;;;;;;;41.33;35.35;;;22.10;59.30;;;;;;4812857;54;21723;-35
2022/10/07 21:56:37;;;;;;;41.92;33.92;;;22.10;59.30;;;;;;4842668;54;21461;-37
2022/10/07 22:01:38;;;;;;;41.25;35.08;;;22.10;59.40;;;;;;4842034;54;21027;-27
2022/10/07 22:11:58;;;;;;;41.28;34.88;;;22.10;59.30;;;;;;4794862;54;21644;-27
2022/10/07 22:16:59;;;;;;;43.63;36.03;;;22.00;59.30;;;;;;4795863;58;21119;-34
2022/10/07 22:22:00;;;;;;;43.67;34.22;;;22.10;59.30;;;;;;4841633;54;22649;-29
2022/10/07 22:27:02;;;;;;;43.90;34.45;;;22.10;59.30;;;;;;4831833;54;21023;-27
2022/10/07 22:32:03;;;;;;;39.08;33.25;;;22.10;59.30;;;;;;4813010;54;22045;-28
2022/10/07 22:37:05;;;;;;;40.45;32.97;;;22.10;59.30;;;;;;4813202;54;21131;-33
2022/10/07 22:42:05;;;;;;;38.55;32.97;;;22.00;59.80;;;;;;4810960;54;21573;-29
2022/10/07 22:47:06;;;;;;;38.15;32.80;;;22.10;59.30;;;;;;4817704;54;21044;-29
2022/10/07 22:52:07;;;;;;;38.05;32.78;;;22.10;59.30;;;;;;4815699;54;21004;-34
2022/10/07 22:57:08;;;;;;;40.20;32.70;;;22.00;59.20;;;;;;4802636;54;21943;-26
2022/10/07 23:02:09;;;;;;;38.38;32.38;;;22.00;59.20;;;;;;4842906;54;21087;-29
2022/10/07 23:07:10;;;;;;;38.15;31.85;;;22.00;59.20;;;;;;4802488;54;21541;-27
2022/10/07 23:12:10;;;;;;;39.03;31.77;;;22.00;59.20;;;;;;4795161;58;21019;-28
2022/10/07 23:17:11;;;;;;;38.53;31.50;;;22.00;59.10;;;;;;4809267;54;21008;-27
2022/10/07 23:22:12;;;;;;;39.40;33.35;;;22.00;59.20;;;;;;4813977;54;21075;-30
2022/10/07 23:27:13;;;;;;;35.05;31.25;;;22.00;59.20;;;;;;4812115;54;21494;-27
2022/10/07 23:32:14;;;;;;;39.75;32.53;;;22.00;59.20;;;;;;4822660;54;21648;-29
2022/10/07 23:37:15;;;;;;;36.45;32.22;;;22.00;59.20;;;;;;4818920;54;21067;-27
2022/10/07 23:42:16;;;;;;;36.80;31.83;;;22.00;59.10;;;;;;4801576;54;21147;-32
2022/10/07 23:47:19;;;;;;;35.63;31.62;;;22.10;59.20;;;;;;4850267;54;21074;-27
2022/10/07 23:52:20;;;;;;;36.30;31.33;;;22.00;59.20;;;;;;4808388;54;22244;-35
2022/10/07 23:57:21;;;;;;;36.20;31.85;;;22.00;59.10;;;;;;4841081;54;21522;-28
